sensor_id;sensor_type;location;lat;lon;timestamp;temperature;humidity
13880;DHT22;7010;48.200;16.332;2023-01-16T00:01:30;5.50;99.90
13880;DHT22;7010;48.200;16.332;2023-01-16T00:03:59;5.50;99.90
13880;DHT22;7010;48.200;16.332;2023-01-16T00:06:28;5.50;99.90
13880;DHT22;7010;48.200;16.332;2023-01-16T00:08:57;5.50;99.90
13880;DHT22;7010;48.200;16.332;2023-01-16T00:11:25;5.40;99.90
13880;DHT22;7010;48.200;16.332;2023-01-16T00:13:54;5.40;99.90
13880;DHT22;7010;48.200;16.332;2023-01-16T00:16:22;5.40;99.90
13880;DHT22;7010;48.200;16.332;2023-01-16T00:18:50;5.40;99.90
13880;DHT22;7010;48.200;16.332;2023-01-16T00:21:21;5.40;99.90
13880;DHT22;7010;48.200;16.332;2023-01-16T00:23:55;5.40;99.90
13880;DHT22;7010;48.200;16.332;2023-01-16T00:26:24;5.40;99.90
13880;DHT22;7010;48.200;16.332;2023-01-16T00:28:52;5.40;99.90
13880;DHT22;7010;48.200;16.332;2023-01-16T00:31:21;5.30;99.90
13880;DHT22;7010;48.200;16.332;2023-01-16T00:33:53;5.40;99.90
13880;DHT22;7010;48.200;16.332;2023-01-16T00:36:21;5.30;99.90
13880;DHT22;7010;48.200;16.332;2023-01-16T00:38:49;5.30;99.90
13880;DHT22;7010;48.200;16.332;2023-01-16T00:41:19;5.30;99.90
13880;DHT22;7010;48.200;16.332;2023-01-16T00:43:47;5.30;99.90
13880;DHT22;7010;48.200;16.332;2023-01-16T00:46:15;5.30;99.90
13880;DHT22;7010;48.200;16.332;2023-01-16T00:48:44;5.30;99.90
13880;DHT22;7010;48.200;16.332;2023-01-16T00:51:12;5.30;99.90
13880;DHT22;7010;48.200;16.332;2023-01-16T00:53:40;5.30;99.90
13880;DHT22;7010;48.200;16.332;2023-01-16T00:56:08;5.30;99.90
13880;DHT22;7010;48.200;16.332;2023-01-16T00:58:38;5.30;99.90
13880;DHT22;7010;48.200;16.332;2023-01-16T01:01:06;5.20;99.90
13880;DHT22;7010;48.200;16.332;2023-01-16T01:03:35;5.20;99.90
13880;DHT22;7010;48.200;16.332;2023-01-16T01:06:05;5.20;99.90
13880;DHT22;7010;48.200;16.332;2023-01-16T01:08:34;5.20;99.90
13880;DHT22;7010;48.200;16.332;2023-01-16T01:11:06;5.30;99.90
13880;DHT22;7010;48.200;16.332;2023-01-16T01:13:35;5.20;99.90
13880;DHT22;7010;48.200;16.332;2023-01-16T01:16:06;5.30;99.90
13880;DHT22;7010;48.200;16.332;2023-01-16T01:18:41;5.30;99.90
13880;DHT22;7010;48.200;16.332;2023-01-16T01:21:09;5.20;99.90
13880;DHT22;7010;48.200;16.332;2023-01-16T01:23:37;5.30;99.90
13880;DHT22;7010;48.200;16.332;2023-01-16T01:26:07;5.30;99.90
13880;DHT22;7010;48.200;16.332;2023-01-16T01:28:36;5.30;99.90
13880;DHT22;7010;48.200;16.332;2023-01-16T01:31:07;5.30;99.90
13880;DHT22;7010;48.200;16.332;2023-01-16T01:33:36;5.30;99.90
13880;DHT22;7010;48.200;16.332;2023-01-16T01:36:06;5.30;99.90
13880;DHT22;7010;48.200;16.332;2023-01-16T01:38:35;5.30;99.90
13880;DHT22;7010;48.200;16.332;2023-01-16T01:41:03;5.30;99.90
13880;DHT22;7010;48.200;16.332;2023-01-16T01:43:41;5.30;99.90
13880;DHT22;7010;48.200;16.332;2023-01-16T01:46:21;5.30;99.90
13880;DHT22;7010;48.200;16.332;2023-01-16T01:48:54;5.30;99.90
13880;DHT22;7010;48.200;16.332;2023-01-16T01:51:26;5.30;99.90
13880;DHT22;7010;48.200;16.332;2023-01-16T01:53:57;5.30;99.90
13880;DHT22;7010;48.200;16.332;2023-01-16T01:56:31;5.30;99.90
13880;DHT22;7010;48.200;16.332;2023-01-16T01:59:05;5.30;99.90
13880;DHT22;7010;48.200;16.332;2023-01-16T02:01:36;5.30;99.90
13880;DHT22;7010;48.200;16.332;2023-01-16T02:04:07;5.30;99.90
13880;DHT22;7010;48.200;16.332;2023-01-16T02:06:41;5.30;99.90
13880;DHT22;7010;48.200;16.332;2023-01-16T02:09:11;5.30;99.90
13880;DHT22;7010;48.200;16.332;2023-01-16T02:11:43;5.30;99.90
13880;DHT22;7010;48.200;16.332;2023-01-16T02:14:15;5.30;99.90
13880;DHT22;7010;48.200;16.332;2023-01-16T02:16:55;5.30;99.90
13880;DHT22;7010;48.200;16.332;2023-01-16T02:20:11;5.30;99.90
13880;DHT22;7010;48.200;16.332;2023-01-16T02:32:14;5.30;99.90
13880;DHT22;7010;48.200;16.332;2023-01-16T02:34:56;5.30;99.90
13880;DHT22;7010;48.200;16.332;2023-01-16T02:37:33;5.30;99.90
13880;DHT22;7010;48.200;16.332;2023-01-16T02:40:16;5.30;99.90
13880;DHT22;7010;48.200;16.332;2023-01-16T02:42:54;5.30;99.90
13880;DHT22;7010;48.200;16.332;2023-01-16T02:45:29;5.30;99.90
13880;DHT22;7010;48.200;16.332;2023-01-16T02:48:08;5.30;99.90
13880;DHT22;7010;48.200;16.332;2023-01-16T02:50:42;5.30;99.90
13880;DHT22;7010;48.200;16.332;2023-01-16T02:53:19;5.30;99.90
13880;DHT22;7010;48.200;16.332;2023-01-16T02:55:52;5.30;99.90
13880;DHT22;7010;48.200;16.332;2023-01-16T02:58:22;5.30;99.90
13880;DHT22;7010;48.200;16.332;2023-01-16T03:00:52;5.30;99.90
13880;DHT22;7010;48.200;16.332;2023-01-16T03:03:36;5.30;99.90
13880;DHT22;7010;48.200;16.332;2023-01-16T03:06:24;5.30;99.90
13880;DHT22;7010;48.200;16.332;2023-01-16T03:09:07;5.30;99.90
13880;DHT22;7010;48.200;16.332;2023-01-16T03:11:44;5.30;99.90
13880;DHT22;7010;48.200;16.332;2023-01-16T03:14:26;5.30;99.90
13880;DHT22;7010;48.200;16.332;2023-01-16T03:17:11;5.30;99.90
13880;DHT22;7010;48.200;16.332;2023-01-16T03:19:59;5.20;99.90
13880;DHT22;7010;48.200;16.332;2023-01-16T03:22:33;5.20;99.90
13880;DHT22;7010;48.200;16.332;2023-01-16T03:25:17;5.20;99.90
13880;DHT22;7010;48.200;16.332;2023-01-16T03:27:55;5.20;99.90
13880;DHT22;7010;48.200;16.332;2023-01-16T03:30:28;5.30;99.90
13880;DHT22;7010;48.200;16.332;2023-01-16T03:33:03;5.20;99.90
13880;DHT22;7010;48.200;16.332;2023-01-16T03:35:39;5.30;99.90
13880;DHT22;7010;48.200;16.332;2023-01-16T03:38:11;5.20;99.90
13880;DHT22;7010;48.200;16.332;2023-01-16T03:40:42;5.30;99.90
13880;DHT22;7010;48.200;16.332;2023-01-16T03:43:15;5.30;99.90
13880;DHT22;7010;48.200;16.332;2023-01-16T03:45:49;5.30;99.90
13880;DHT22;7010;48.200;16.332;2023-01-16T03:48:26;5.30;99.90
13880;DHT22;7010;48.200;16.332;2023-01-16T03:51:02;5.30;99.90
13880;DHT22;7010;48.200;16.332;2023-01-16T03:53:34;5.30;99.90
13880;DHT22;7010;48.200;16.332;2023-01-16T03:56:10;5.30;99.90
13880;DHT22;7010;48.200;16.332;2023-01-16T03:58:50;5.30;99.90
13880;DHT22;7010;48.200;16.332;2023-01-16T04:01:24;5.30;99.90
13880;DHT22;7010;48.200;16.332;2023-01-16T04:03:59;5.30;99.90
13880;DHT22;7010;48.200;16.332;2023-01-16T04:06:34;5.30;99.90
13880;DHT22;7010;48.200;16.332;2023-01-16T04:09:08;5.40;99.90
13880;DHT22;7010;48.200;16.332;2023-01-16T04:11:39;5.30;99.90
13880;DHT22;7010;48.200;16.332;2023-01-16T04:14:10;5.30;99.90
13880;DHT22;7010;48.200;16.332;2023-01-16T04:16:41;5.30;99.90
13880;DHT22;7010;48.200;16.332;2023-01-16T04:19:12;5.30;99.90
13880;DHT22;7010;48.200;16.332;2023-01-16T04:21:45;5.30;99.90
13880;DHT22;7010;48.200;16.332;2023-01-16T04:24:14;5.30;99.90
13880;DHT22;7010;48.200;16.332;2023-01-16T04:26:43;5.30;99.90
13880;DHT22;7010;48.200;16.332;2023-01-16T04:29:11;5.30;99.90
13880;DHT22;7010;48.200;16.332;2023-01-16T04:31:39;5.30;99.90
13880;DHT22;7010;48.200;16.332;2023-01-16T04:34:08;5.30;99.90
13880;DHT22;7010;48.200;16.332;2023-01-16T04:36:36;5.30;99.90
13880;DHT22;7010;48.200;16.332;2023-01-16T04:39:06;5.30;99.90
13880;DHT22;7010;48.200;16.332;2023-01-16T04:41:34;5.30;99.90
13880;DHT22;7010;48.200;16.332;2023-01-16T04:44:08;5.30;99.90
13880;DHT22;7010;48.200;16.332;2023-01-16T04:46:37;5.30;99.90
13880;DHT22;7010;48.200;16.332;2023-01-16T04:49:06;5.30;99.90
13880;DHT22;7010;48.200;16.332;2023-01-16T04:51:34;5.30;99.90
13880;DHT22;7010;48.200;16.332;2023-01-16T04:54:04;5.20;99.90
13880;DHT22;7010;48.200;16.332;2023-01-16T04:56:34;5.30;99.90
13880;DHT22;7010;48.200;16.332;2023-01-16T04:59:02;5.30;99.90
13880;DHT22;7010;48.200;16.332;2023-01-16T05:01:31;5.20;99.90
13880;DHT22;7010;48.200;16.332;2023-01-16T05:04:02;5.20;99.90
13880;DHT22;7010;48.200;16.332;2023-01-16T05:06:31;5.30;99.90
13880;DHT22;7010;48.200;16.332;2023-01-16T05:09:00;5.20;99.90
13880;DHT22;7010;48.200;16.332;2023-01-16T05:11:29;5.20;99.90
13880;DHT22;7010;48.200;16.332;2023-01-16T05:13:58;5.20;99.90
13880;DHT22;7010;48.200;16.332;2023-01-16T05:16:27;5.10;99.90
13880;DHT22;7010;48.200;16.332;2023-01-16T05:18:55;5.10;99.90
13880;DHT22;7010;48.200;16.332;2023-01-16T05:21:24;5.10;99.90
13880;DHT22;7010;48.200;16.332;2023-01-16T05:23:52;5.10;99.90
13880;DHT22;7010;48.200;16.332;2023-01-16T05:26:20;5.10;99.90
13880;DHT22;7010;48.200;16.332;2023-01-16T05:28:49;5.10;99.90
13880;DHT22;7010;48.200;16.332;2023-01-16T05:31:19;5.20;99.90
13880;DHT22;7010;48.200;16.332;2023-01-16T05:33:47;5.20;99.90
13880;DHT22;7010;48.200;16.332;2023-01-16T05:36:16;5.20;99.90
13880;DHT22;7010;48.200;16.332;2023-01-16T05:38:44;5.20;99.90
13880;DHT22;7010;48.200;16.332;2023-01-16T05:41:13;5.20;99.90
13880;DHT22;7010;48.200;16.332;2023-01-16T05:43:41;5.20;99.90
13880;DHT22;7010;48.200;16.332;2023-01-16T05:46:09;5.20;99.90
13880;DHT22;7010;48.200;16.332;2023-01-16T05:48:39;5.20;99.90
13880;DHT22;7010;48.200;16.332;2023-01-16T05:51:07;5.20;99.90
13880;DHT22;7010;48.200;16.332;2023-01-16T05:53:36;5.20;99.90
13880;DHT22;7010;48.200;16.332;2023-01-16T05:56:07;5.20;99.90
13880;DHT22;7010;48.200;16.332;2023-01-16T05:58:36;5.10;99.90
13880;DHT22;7010;48.200;16.332;2023-01-16T06:01:04;5.20;99.90
13880;DHT22;7010;48.200;16.332;2023-01-16T06:03:33;5.20;99.90
13880;DHT22;7010;48.200;16.332;2023-01-16T06:06:03;5.20;99.90
13880;DHT22;7010;48.200;16.332;2023-01-16T06:08:31;5.20;99.90
13880;DHT22;7010;48.200;16.332;2023-01-16T06:10:59;5.20;99.90
13880;DHT22;7010;48.200;16.332;2023-01-16T06:13:28;5.10;99.90
13880;DHT22;7010;48.200;16.332;2023-01-16T06:15:56;5.10;99.90
13880;DHT22;7010;48.200;16.332;2023-01-16T06:18:24;5.10;99.90
13880;DHT22;7010;48.200;16.332;2023-01-16T06:20:52;5.10;99.90
13880;DHT22;7010;48.200;16.332;2023-01-16T06:23:22;5.10;99.90
13880;DHT22;7010;48.200;16.332;2023-01-16T06:25:50;5.10;99.90
13880;DHT22;7010;48.200;16.332;2023-01-16T06:28:19;5.10;99.90
13880;DHT22;7010;48.200;16.332;2023-01-16T06:30:50;5.10;99.90
13880;DHT22;7010;48.200;16.332;2023-01-16T06:33:19;5.10;99.90
13880;DHT22;7010;48.200;16.332;2023-01-16T06:35:47;5.10;99.90
13880;DHT22;7010;48.200;16.332;2023-01-16T06:38:17;5.10;99.90
13880;DHT22;7010;48.200;16.332;2023-01-16T06:40:46;5.10;99.90
13880;DHT22;7010;48.200;16.332;2023-01-16T06:43:15;5.10;99.90
13880;DHT22;7010;48.200;16.332;2023-01-16T06:45:43;5.10;99.90
13880;DHT22;7010;48.200;16.332;2023-01-16T06:48:12;5.10;99.90
13880;DHT22;7010;48.200;16.332;2023-01-16T06:50:40;5.10;99.90
13880;DHT22;7010;48.200;16.332;2023-01-16T06:53:08;5.10;99.90
13880;DHT22;7010;48.200;16.332;2023-01-16T06:55:37;5.00;99.90
13880;DHT22;7010;48.200;16.332;2023-01-16T06:58:09;5.00;99.90
13880;DHT22;7010;48.200;16.332;2023-01-16T07:00:38;5.00;99.90
13880;DHT22;7010;48.200;16.332;2023-01-16T07:03:09;4.90;99.90
13880;DHT22;7010;48.200;16.332;2023-01-16T07:05:37;4.90;99.90
13880;DHT22;7010;48.200;16.332;2023-01-16T07:08:06;4.80;99.90
13880;DHT22;7010;48.200;16.332;2023-01-16T07:10:34;4.80;99.90
13880;DHT22;7010;48.200;16.332;2023-01-16T07:13:03;4.80;99.90
13880;DHT22;7010;48.200;16.332;2023-01-16T07:15:33;4.70;99.90
13880;DHT22;7010;48.200;16.332;2023-01-16T07:18:18;4.70;99.90
13880;DHT22;7010;48.200;16.332;2023-01-16T07:21:07;4.70;99.90
13880;DHT22;7010;48.200;16.332;2023-01-16T07:23:58;4.70;99.90
13880;DHT22;7010;48.200;16.332;2023-01-16T07:26:28;4.70;99.90
13880;DHT22;7010;48.200;16.332;2023-01-16T07:28:57;4.70;99.90
13880;DHT22;7010;48.200;16.332;2023-01-16T07:31:31;4.70;99.90
13880;DHT22;7010;48.200;16.332;2023-01-16T07:34:00;4.70;99.90
13880;DHT22;7010;48.200;16.332;2023-01-16T07:36:29;4.70;99.90
13880;DHT22;7010;48.200;16.332;2023-01-16T07:38:57;4.70;99.90
13880;DHT22;7010;48.200;16.332;2023-01-16T07:41:25;4.70;99.90
13880;DHT22;7010;48.200;16.332;2023-01-16T07:43:54;4.70;99.90
13880;DHT22;7010;48.200;16.332;2023-01-16T07:46:23;4.70;99.90
13880;DHT22;7010;48.200;16.332;2023-01-16T07:48:53;4.70;99.90
13880;DHT22;7010;48.200;16.332;2023-01-16T07:51:23;4.60;99.90
13880;DHT22;7010;48.200;16.332;2023-01-16T07:53:53;4.70;99.90
13880;DHT22;7010;48.200;16.332;2023-01-16T07:56:22;4.70;99.90
13880;DHT22;7010;48.200;16.332;2023-01-16T07:58:50;4.70;99.90
13880;DHT22;7010;48.200;16.332;2023-01-16T08:01:21;4.70;99.90
13880;DHT22;7010;48.200;16.332;2023-01-16T08:03:52;4.70;99.90
13880;DHT22;7010;48.200;16.332;2023-01-16T08:06:21;4.70;99.90
13880;DHT22;7010;48.200;16.332;2023-01-16T08:08:49;4.70;99.90
13880;DHT22;7010;48.200;16.332;2023-01-16T08:11:18;4.60;99.90
13880;DHT22;7010;48.200;16.332;2023-01-16T08:14:06;4.70;99.90
13880;DHT22;7010;48.200;16.332;2023-01-16T08:16:35;4.70;99.90
13880;DHT22;7010;48.200;16.332;2023-01-16T08:19:04;4.70;99.90
13880;DHT22;7010;48.200;16.332;2023-01-16T08:21:33;4.70;99.90
13880;DHT22;7010;48.200;16.332;2023-01-16T08:24:01;4.60;99.90
13880;DHT22;7010;48.200;16.332;2023-01-16T08:26:29;4.60;99.90
13880;DHT22;7010;48.200;16.332;2023-01-16T08:29:02;4.60;99.90
13880;DHT22;7010;48.200;16.332;2023-01-16T08:31:32;4.60;99.90
13880;DHT22;7010;48.200;16.332;2023-01-16T08:34:04;4.60;99.90
13880;DHT22;7010;48.200;16.332;2023-01-16T08:36:32;4.70;99.90
13880;DHT22;7010;48.200;16.332;2023-01-16T08:39:01;4.70;99.90
13880;DHT22;7010;48.200;16.332;2023-01-16T08:41:29;4.70;99.90
13880;DHT22;7010;48.200;16.332;2023-01-16T08:44:15;4.80;99.90
13880;DHT22;7010;48.200;16.332;2023-01-16T08:47:05;4.90;99.90
13880;DHT22;7010;48.200;16.332;2023-01-16T08:49:53;5.00;99.90
13880;DHT22;7010;48.200;16.332;2023-01-16T08:52:39;5.00;99.90
13880;DHT22;7010;48.200;16.332;2023-01-16T08:55:09;5.00;99.90
13880;DHT22;7010;48.200;16.332;2023-01-16T08:57:37;5.10;99.90
13880;DHT22;7010;48.200;16.332;2023-01-16T09:00:07;5.10;99.90
13880;DHT22;7010;48.200;16.332;2023-01-16T09:02:36;5.10;99.90
13880;DHT22;7010;48.200;16.332;2023-01-16T09:05:07;5.20;99.90
13880;DHT22;7010;48.200;16.332;2023-01-16T09:07:36;5.20;99.90
13880;DHT22;7010;48.200;16.332;2023-01-16T09:10:05;5.30;99.90
13880;DHT22;7010;48.200;16.332;2023-01-16T09:12:33;5.30;99.90
13880;DHT22;7010;48.200;16.332;2023-01-16T09:15:19;5.30;99.90
13880;DHT22;7010;48.200;16.332;2023-01-16T09:17:48;5.20;99.90
13880;DHT22;7010;48.200;16.332;2023-01-16T09:20:18;5.10;99.90
13880;DHT22;7010;48.200;16.332;2023-01-16T09:22:46;5.10;99.90
13880;DHT22;7010;48.200;16.332;2023-01-16T09:25:14;5.10;99.90
13880;DHT22;7010;48.200;16.332;2023-01-16T09:27:43;5.10;99.90
13880;DHT22;7010;48.200;16.332;2023-01-16T09:30:13;5.10;99.90
13880;DHT22;7010;48.200;16.332;2023-01-16T09:32:43;5.20;99.90
13880;DHT22;7010;48.200;16.332;2023-01-16T09:35:15;5.10;99.90
13880;DHT22;7010;48.200;16.332;2023-01-16T09:37:45;5.10;99.90
13880;DHT22;7010;48.200;16.332;2023-01-16T09:40:16;5.10;99.90
13880;DHT22;7010;48.200;16.332;2023-01-16T09:43:02;5.10;99.90
13880;DHT22;7010;48.200;16.332;2023-01-16T09:45:54;5.10;99.90
13880;DHT22;7010;48.200;16.332;2023-01-16T09:48:26;5.10;99.90
13880;DHT22;7010;48.200;16.332;2023-01-16T09:50:58;5.10;99.90
13880;DHT22;7010;48.200;16.332;2023-01-16T09:53:34;5.10;99.90
13880;DHT22;7010;48.200;16.332;2023-01-16T09:56:21;5.10;99.90
13880;DHT22;7010;48.200;16.332;2023-01-16T09:59:19;5.20;99.90
13880;DHT22;7010;48.200;16.332;2023-01-16T10:01:55;5.20;99.90
13880;DHT22;7010;48.200;16.332;2023-01-16T10:04:25;5.30;99.90
13880;DHT22;7010;48.200;16.332;2023-01-16T10:07:18;5.30;99.90
13880;DHT22;7010;48.200;16.332;2023-01-16T10:09:59;5.30;99.90
13880;DHT22;7010;48.200;16.332;2023-01-16T10:12:32;5.40;99.90
13880;DHT22;7010;48.200;16.332;2023-01-16T10:15:11;5.50;99.90
13880;DHT22;7010;48.200;16.332;2023-01-16T10:17:50;5.40;99.90
13880;DHT22;7010;48.200;16.332;2023-01-16T10:20:32;5.60;99.90
13880;DHT22;7010;48.200;16.332;2023-01-16T10:23:12;5.70;99.90
13880;DHT22;7010;48.200;16.332;2023-01-16T10:25:48;5.80;99.90
13880;DHT22;7010;48.200;16.332;2023-01-16T10:28:28;6.00;99.90
13880;DHT22;7010;48.200;16.332;2023-01-16T10:31:05;6.20;99.90
13880;DHT22;7010;48.200;16.332;2023-01-16T10:33:41;6.30;99.90
13880;DHT22;7010;48.200;16.332;2023-01-16T10:36:20;6.30;99.90
13880;DHT22;7010;48.200;16.332;2023-01-16T10:38:53;6.20;99.90
13880;DHT22;7010;48.200;16.332;2023-01-16T10:41:33;6.10;99.90
13880;DHT22;7010;48.200;16.332;2023-01-16T10:44:30;6.10;99.90
13880;DHT22;7010;48.200;16.332;2023-01-16T10:47:15;6.00;99.90
13880;DHT22;7010;48.200;16.332;2023-01-16T10:50:02;6.00;99.90
13880;DHT22;7010;48.200;16.332;2023-01-16T10:52:33;6.00;99.90
13880;DHT22;7010;48.200;16.332;2023-01-16T10:55:02;6.00;99.90
13880;DHT22;7010;48.200;16.332;2023-01-16T10:57:32;6.00;99.90
13880;DHT22;7010;48.200;16.332;2023-01-16T11:00:05;6.00;99.90
13880;DHT22;7010;48.200;16.332;2023-01-16T11:02:40;5.90;99.90
13880;DHT22;7010;48.200;16.332;2023-01-16T11:05:28;6.00;99.90
13880;DHT22;7010;48.200;16.332;2023-01-16T11:08:06;6.00;99.90
13880;DHT22;7010;48.200;16.332;2023-01-16T11:10:35;6.10;99.90
13880;DHT22;7010;48.200;16.332;2023-01-16T11:13:04;6.10;99.90
13880;DHT22;7010;48.200;16.332;2023-01-16T11:16:01;6.20;99.90
13880;DHT22;7010;48.200;16.332;2023-01-16T11:18:43;6.20;99.90
13880;DHT22;7010;48.200;16.332;2023-01-16T11:21:16;6.00;99.90
13880;DHT22;7010;48.200;16.332;2023-01-16T11:23:47;6.10;99.90
13880;DHT22;7010;48.200;16.332;2023-01-16T11:26:16;6.30;99.90
13880;DHT22;7010;48.200;16.332;2023-01-16T11:28:53;6.70;99.90
13880;DHT22;7010;48.200;16.332;2023-01-16T11:31:24;6.80;99.90
13880;DHT22;7010;48.200;16.332;2023-01-16T11:33:58;6.70;99.90
13880;DHT22;7010;48.200;16.332;2023-01-16T11:36:31;6.60;99.90
13880;DHT22;7010;48.200;16.332;2023-01-16T11:39:00;6.50;99.90
13880;DHT22;7010;48.200;16.332;2023-01-16T11:41:33;6.40;99.90
13880;DHT22;7010;48.200;16.332;2023-01-16T11:44:19;6.40;99.90
13880;DHT22;7010;48.200;16.332;2023-01-16T11:47:10;6.40;99.90
13880;DHT22;7010;48.200;16.332;2023-01-16T11:49:45;6.40;99.90
13880;DHT22;7010;48.200;16.332;2023-01-16T11:52:15;6.30;99.90
13880;DHT22;7010;48.200;16.332;2023-01-16T11:54:55;6.00;99.90
13880;DHT22;7010;48.200;16.332;2023-01-16T11:57:34;5.80;99.90
13880;DHT22;7010;48.200;16.332;2023-01-16T12:00:37;5.80;99.90
13880;DHT22;7010;48.200;16.332;2023-01-16T12:03:33;5.70;99.90
13880;DHT22;7010;48.200;16.332;2023-01-16T12:06:14;5.70;99.90
13880;DHT22;7010;48.200;16.332;2023-01-16T12:09:17;5.70;99.90
13880;DHT22;7010;48.200;16.332;2023-01-16T12:12:10;5.70;99.90
13880;DHT22;7010;48.200;16.332;2023-01-16T12:14:59;5.60;99.90
13880;DHT22;7010;48.200;16.332;2023-01-16T12:17:48;5.60;99.90
13880;DHT22;7010;48.200;16.332;2023-01-16T12:20:26;5.80;99.90
13880;DHT22;7010;48.200;16.332;2023-01-16T12:23:09;6.20;99.90
13880;DHT22;7010;48.200;16.332;2023-01-16T12:25:48;6.10;99.90
13880;DHT22;7010;48.200;16.332;2023-01-16T12:28:31;6.00;99.90
13880;DHT22;7010;48.200;16.332;2023-01-16T12:31:17;5.90;99.90
13880;DHT22;7010;48.200;16.332;2023-01-16T12:34:24;5.70;99.90
13880;DHT22;7010;48.200;16.332;2023-01-16T12:37:08;5.50;99.90
13880;DHT22;7010;48.200;16.332;2023-01-16T12:39:44;5.40;99.90
13880;DHT22;7010;48.200;16.332;2023-01-16T12:42:23;5.40;99.90
13880;DHT22;7010;48.200;16.332;2023-01-16T12:45:22;5.40;99.90
13880;DHT22;7010;48.200;16.332;2023-01-16T12:48:00;5.30;99.90
13880;DHT22;7010;48.200;16.332;2023-01-16T12:50:42;5.30;99.90
13880;DHT22;7010;48.200;16.332;2023-01-16T12:53:33;5.20;99.90
13880;DHT22;7010;48.200;16.332;2023-01-16T12:56:25;5.20;99.90
13880;DHT22;7010;48.200;16.332;2023-01-16T12:58:58;5.20;99.90
13880;DHT22;7010;48.200;16.332;2023-01-16T13:01:33;5.10;99.90
13880;DHT22;7010;48.200;16.332;2023-01-16T13:04:10;5.10;99.90
13880;DHT22;7010;48.200;16.332;2023-01-16T13:06:45;5.10;99.90
13880;DHT22;7010;48.200;16.332;2023-01-16T13:09:18;5.10;99.90
13880;DHT22;7010;48.200;16.332;2023-01-16T13:12:03;5.20;99.90
13880;DHT22;7010;48.200;16.332;2023-01-16T13:14:54;5.20;99.90
13880;DHT22;7010;48.200;16.332;2023-01-16T13:17:26;5.20;99.90
13880;DHT22;7010;48.200;16.332;2023-01-16T13:20:00;5.20;99.90
13880;DHT22;7010;48.200;16.332;2023-01-16T13:22:38;5.10;99.90
13880;DHT22;7010;48.200;16.332;2023-01-16T13:25:17;5.10;99.90
13880;DHT22;7010;48.200;16.332;2023-01-16T13:27:51;5.00;99.90
13880;DHT22;7010;48.200;16.332;2023-01-16T13:30:21;5.00;99.90
13880;DHT22;7010;48.200;16.332;2023-01-16T13:32:53;5.10;99.90
13880;DHT22;7010;48.200;16.332;2023-01-16T13:35:26;5.10;99.90
13880;DHT22;7010;48.200;16.332;2023-01-16T13:38:17;5.10;99.90
13880;DHT22;7010;48.200;16.332;2023-01-16T13:43:45;5.10;99.90
13880;DHT22;7010;48.200;16.332;2023-01-16T13:46:33;5.10;99.90
13880;DHT22;7010;48.200;16.332;2023-01-16T13:49:04;5.00;99.90
13880;DHT22;7010;48.200;16.332;2023-01-16T13:51:41;5.00;99.90
13880;DHT22;7010;48.200;16.332;2023-01-16T13:54:15;4.90;99.90
13880;DHT22;7010;48.200;16.332;2023-01-16T13:56:56;4.90;99.90
13880;DHT22;7010;48.200;16.332;2023-01-16T13:59:41;4.80;99.90
13880;DHT22;7010;48.200;16.332;2023-01-16T14:02:39;4.80;99.90
13880;DHT22;7010;48.200;16.332;2023-01-16T14:05:20;4.70;99.90
13880;DHT22;7010;48.200;16.332;2023-01-16T14:08:04;4.70;99.90
13880;DHT22;7010;48.200;16.332;2023-01-16T14:14:34;4.70;99.90
13880;DHT22;7010;48.200;16.332;2023-01-16T14:20:43;4.60;99.90
13880;DHT22;7010;48.200;16.332;2023-01-16T14:23:18;4.50;99.90
13880;DHT22;7010;48.200;16.332;2023-01-16T14:26:07;4.40;99.90
13880;DHT22;7010;48.200;16.332;2023-01-16T14:28:38;4.40;99.90
13880;DHT22;7010;48.200;16.332;2023-01-16T14:31:21;4.40;99.90
13880;DHT22;7010;48.200;16.332;2023-01-16T14:33:55;4.40;99.90
13880;DHT22;7010;48.200;16.332;2023-01-16T14:36:26;4.50;99.90
13880;DHT22;7010;48.200;16.332;2023-01-16T14:38:55;4.50;99.90
13880;DHT22;7010;48.200;16.332;2023-01-16T14:41:29;4.40;99.90
13880;DHT22;7010;48.200;16.332;2023-01-16T14:44:18;4.40;99.90
13880;DHT22;7010;48.200;16.332;2023-01-16T14:47:11;4.40;99.90
13880;DHT22;7010;48.200;16.332;2023-01-16T14:50:09;4.40;99.90
13880;DHT22;7010;48.200;16.332;2023-01-16T14:53:20;4.30;99.90
13880;DHT22;7010;48.200;16.332;2023-01-16T14:56:11;4.30;99.90
13880;DHT22;7010;48.200;16.332;2023-01-16T14:58:47;4.30;99.90
13880;DHT22;7010;48.200;16.332;2023-01-16T15:01:21;4.30;99.90
13880;DHT22;7010;48.200;16.332;2023-01-16T15:04:07;4.30;99.90
13880;DHT22;7010;48.200;16.332;2023-01-16T15:06:39;4.30;99.90
13880;DHT22;7010;48.200;16.332;2023-01-16T15:09:14;4.20;99.90
13880;DHT22;7010;48.200;16.332;2023-01-16T15:11:49;4.20;99.90
13880;DHT22;7010;48.200;16.332;2023-01-16T15:14:22;4.20;99.90
13880;DHT22;7010;48.200;16.332;2023-01-16T15:17:16;4.20;99.90
13880;DHT22;7010;48.200;16.332;2023-01-16T15:20:23;4.10;99.90
13880;DHT22;7010;48.200;16.332;2023-01-16T15:23:26;4.10;99.90
13880;DHT22;7010;48.200;16.332;2023-01-16T15:26:08;4.10;99.90
13880;DHT22;7010;48.200;16.332;2023-01-16T15:28:46;4.10;99.90
13880;DHT22;7010;48.200;16.332;2023-01-16T15:31:22;4.00;99.90
13880;DHT22;7010;48.200;16.332;2023-01-16T15:34:01;4.00;99.90
13880;DHT22;7010;48.200;16.332;2023-01-16T15:36:36;4.00;99.90
13880;DHT22;7010;48.200;16.332;2023-01-16T15:39:18;4.00;99.90
13880;DHT22;7010;48.200;16.332;2023-01-16T15:41:53;4.00;99.90
13880;DHT22;7010;48.200;16.332;2023-01-16T15:44:41;4.00;99.90
13880;DHT22;7010;48.200;16.332;2023-01-16T15:48:01;3.90;99.90
13880;DHT22;7010;48.200;16.332;2023-01-16T15:50:46;3.90;99.90
13880;DHT22;7010;48.200;16.332;2023-01-16T15:53:17;3.90;99.90
13880;DHT22;7010;48.200;16.332;2023-01-16T15:55:48;3.90;99.90
13880;DHT22;7010;48.200;16.332;2023-01-16T15:58:19;3.90;99.90
13880;DHT22;7010;48.200;16.332;2023-01-16T16:00:54;3.90;99.90
13880;DHT22;7010;48.200;16.332;2023-01-16T16:03:28;3.80;99.90
13880;DHT22;7010;48.200;16.332;2023-01-16T16:06:02;3.80;99.90
13880;DHT22;7010;48.200;16.332;2023-01-16T16:08:34;3.80;99.90
13880;DHT22;7010;48.200;16.332;2023-01-16T16:11:06;3.80;99.90
13880;DHT22;7010;48.200;16.332;2023-01-16T16:13:53;3.70;99.90
13880;DHT22;7010;48.200;16.332;2023-01-16T16:16:24;3.70;99.90
13880;DHT22;7010;48.200;16.332;2023-01-16T16:19:29;3.70;99.90
13880;DHT22;7010;48.200;16.332;2023-01-16T16:22:00;3.70;99.90
13880;DHT22;7010;48.200;16.332;2023-01-16T16:24:48;3.70;99.90
13880;DHT22;7010;48.200;16.332;2023-01-16T16:27:17;3.60;99.90
13880;DHT22;7010;48.200;16.332;2023-01-16T16:29:49;3.60;99.90
13880;DHT22;7010;48.200;16.332;2023-01-16T16:32:18;3.60;99.90
13880;DHT22;7010;48.200;16.332;2023-01-16T16:34:53;3.60;99.90
13880;DHT22;7010;48.200;16.332;2023-01-16T16:37:22;3.70;99.90
13880;DHT22;7010;48.200;16.332;2023-01-16T16:39:54;3.70;99.90
13880;DHT22;7010;48.200;16.332;2023-01-16T16:42:51;3.70;99.90
13880;DHT22;7010;48.200;16.332;2023-01-16T16:45:22;3.70;99.90
13880;DHT22;7010;48.200;16.332;2023-01-16T16:48:17;3.70;99.90
13880;DHT22;7010;48.200;16.332;2023-01-16T16:50:48;3.60;99.90
13880;DHT22;7010;48.200;16.332;2023-01-16T16:53:22;3.60;99.90
13880;DHT22;7010;48.200;16.332;2023-01-16T16:55:53;3.60;99.90